createdAt,value
2018-09-06T00:01:21.356Z,91.30
2018-09-06T00:03:50.441Z,91.30
2018-09-06T00:06:21.263Z,91.50
2018-09-06T00:08:50.065Z,91.40
2018-09-06T00:11:18.727Z,91.40
2018-09-06T00:13:47.437Z,91.50
2018-09-06T00:16:19.781Z,91.50
2018-09-06T00:18:48.640Z,91.50
2018-09-06T00:21:17.372Z,91.50
2018-09-06T00:23:46.124Z,91.30
2018-09-06T00:26:14.988Z,91.10
2018-09-06T00:28:43.797Z,91.00
2018-09-06T00:31:12.680Z,90.70
2018-09-06T00:33:41.441Z,90.40
2018-09-06T00:36:10.228Z,90.20
2018-09-06T00:38:38.922Z,90.30
2018-09-06T00:41:07.777Z,90.20
2018-09-06T00:43:36.672Z,90.30
2018-09-06T00:46:05.360Z,90.40
2018-09-06T00:48:34.014Z,90.40
2018-09-06T00:51:02.925Z,90.80
2018-09-06T00:53:31.757Z,91.00
2018-09-06T00:56:00.689Z,90.60
2018-09-06T00:58:29.561Z,91.40
2018-09-06T01:00:58.299Z,91.50
2018-09-06T01:03:27.282Z,91.50
2018-09-06T01:05:56.067Z,91.20
2018-09-06T01:08:27.254Z,91.40
2018-09-06T01:10:56.061Z,91.40
2018-09-06T01:13:24.823Z,91.40
2018-09-06T01:15:53.735Z,91.40
2018-09-06T01:18:22.523Z,91.40
2018-09-06T01:20:51.234Z,91.80
2018-09-06T01:23:19.939Z,92.20
2018-09-06T01:25:49.243Z,91.80
2018-09-06T01:28:19.618Z,91.80
2018-09-06T01:30:48.576Z,91.80
2018-09-06T01:33:17.346Z,92.10
2018-09-06T01:35:51.337Z,92.40
2018-09-06T01:38:22.103Z,91.40
2018-09-06T01:40:50.799Z,92.20
2018-09-06T01:43:19.471Z,92.20
2018-09-06T01:45:48.124Z,92.10
2018-09-06T01:48:18.007Z,92.20
2018-09-06T01:50:46.801Z,92.40
2018-09-06T01:53:15.521Z,91.90
2018-09-06T01:55:44.403Z,91.80
2018-09-06T01:58:13.461Z,91.70
2018-09-06T02:00:43.135Z,91.80
2018-09-06T02:03:11.874Z,91.90
2018-09-06T02:05:40.772Z,92.00
2018-09-06T02:08:09.485Z,92.00
2018-09-06T02:10:38.173Z,92.00
2018-09-06T02:13:06.960Z,92.00
2018-09-06T02:15:35.696Z,92.10
2018-09-06T02:18:04.428Z,92.10
2018-09-06T02:20:33.234Z,92.20
2018-09-06T02:23:01.924Z,92.70
2018-09-06T02:25:31.479Z,92.50
2018-09-06T02:28:00.362Z,92.80
2018-09-06T02:30:29.110Z,93.00
2018-09-06T02:32:57.839Z,93.00
2018-09-06T02:35:26.481Z,93.20
2018-09-06T02:37:55.115Z,93.30
2018-09-06T02:40:42.029Z,93.40
2018-09-06T02:43:12.030Z,93.30
2018-09-06T02:45:42.944Z,93.40
2018-09-06T02:48:11.567Z,93.30
2018-09-06T02:50:45.985Z,93.30
2018-09-06T02:53:14.760Z,93.20
2018-09-06T02:55:43.641Z,93.20
2018-09-06T02:58:12.279Z,93.20
2018-09-06T03:00:41.043Z,93.60
2018-09-06T03:03:09.652Z,93.20
2018-09-06T03:05:40.766Z,92.90
2018-09-06T03:08:10.849Z,92.90
2018-09-06T03:10:41.742Z,92.70
2018-09-06T03:13:11.024Z,92.40
2018-09-06T03:15:39.789Z,92.30
2018-09-06T03:18:08.582Z,92.30
2018-09-06T03:20:37.300Z,92.20
2018-09-06T03:23:06.325Z,92.20
2018-09-06T03:25:36.332Z,92.30
2018-09-06T03:28:05.043Z,92.40
2018-09-06T03:30:33.801Z,92.60
2018-09-06T03:33:02.709Z,92.60
2018-09-06T03:35:31.443Z,92.80
2018-09-06T03:38:00.174Z,93.00
2018-09-06T03:40:28.893Z,93.20
2018-09-06T03:42:57.658Z,93.30
2018-09-06T03:45:26.369Z,93.20
2018-09-06T03:47:55.171Z,93.20
2018-09-06T03:50:23.882Z,93.20
2018-09-06T03:52:52.438Z,92.90
2018-09-06T03:55:21.195Z,92.80
2018-09-06T03:57:51.415Z,93.00
2018-09-06T04:00:20.073Z,93.00
2018-09-06T04:02:49.038Z,92.90
2018-09-06T04:05:17.935Z,92.60
2018-09-06T04:07:46.762Z,92.50
2018-09-06T04:10:15.448Z,92.60
2018-09-06T04:12:44.186Z,92.60
2018-09-06T04:15:12.885Z,92.60
2018-09-06T04:17:41.704Z,92.60
2018-09-06T04:20:10.494Z,92.70
2018-09-06T04:22:42.665Z,92.90
2018-09-06T04:25:11.355Z,93.10
2018-09-06T04:27:40.097Z,93.20
2018-09-06T04:30:08.923Z,93.20
2018-09-06T04:32:37.987Z,93.60
2018-09-06T04:35:06.798Z,93.70
2018-09-06T04:37:35.531Z,93.90
2018-09-06T04:40:04.275Z,93.90
2018-09-06T04:42:33.110Z,94.00
2018-09-06T04:45:02.818Z,93.50
2018-09-06T04:47:31.802Z,93.30
2018-09-06T04:50:00.445Z,93.60
2018-09-06T04:52:31.824Z,93.70
2018-09-06T04:55:00.482Z,93.60
2018-09-06T04:57:29.135Z,93.70
2018-09-06T04:59:57.950Z,93.70
2018-09-06T05:02:26.681Z,93.60
2018-09-06T05:04:55.444Z,93.50
2018-09-06T05:07:24.294Z,93.50
2018-09-06T05:09:52.978Z,93.50
2018-09-06T05:12:21.824Z,93.30
2018-09-06T05:14:51.146Z,92.90
2018-09-06T05:17:19.844Z,93.90
2018-09-06T05:19:48.487Z,93.40
2018-09-06T05:22:17.417Z,93.50
2018-09-06T05:24:46.088Z,93.40
2018-09-06T05:27:14.734Z,93.30
2018-09-06T05:29:43.467Z,92.60
2018-09-06T05:32:12.059Z,93.20
2018-09-06T05:34:41.919Z,93.20
2018-09-06T05:37:21.479Z,92.40
2018-09-06T05:39:50.319Z,93.20
2018-09-06T05:42:18.944Z,93.00
2018-09-06T05:44:47.702Z,92.80
2018-09-06T05:47:16.382Z,93.10
2018-09-06T05:49:45.047Z,93.30
2018-09-06T05:52:13.783Z,93.00
2018-09-06T05:54:47.609Z,93.30
2018-09-06T05:57:22.467Z,92.50
2018-09-06T05:59:51.294Z,92.20
2018-09-06T06:02:19.945Z,92.20
2018-09-06T06:04:48.714Z,92.30
2018-09-06T06:07:17.275Z,92.00
2018-09-06T06:09:46.070Z,92.10
2018-09-06T06:12:14.771Z,92.00
2018-09-06T06:14:45.859Z,92.10
2018-09-06T06:17:14.490Z,92.10
2018-09-06T06:19:51.056Z,91.90
2018-09-06T06:22:26.361Z,91.70
2018-09-06T06:24:55.773Z,91.50
2018-09-06T06:27:25.614Z,91.20
2018-09-06T06:29:54.352Z,91.20
2018-09-06T06:32:28.811Z,91.00
2018-09-06T06:35:01.299Z,91.00
2018-09-06T06:37:31.201Z,90.70
2018-09-06T06:39:59.995Z,90.50
2018-09-06T06:42:28.861Z,90.10
2018-09-06T06:44:57.865Z,90.60
2018-09-06T06:47:26.995Z,90.50
2018-09-06T06:49:55.762Z,90.60
2018-09-06T06:52:24.485Z,90.20
2018-09-06T06:54:53.160Z,90.00
2018-09-06T06:57:21.947Z,90.00
2018-09-06T06:59:50.750Z,89.90
2018-09-06T07:02:19.458Z,90.20
2018-09-06T07:04:48.161Z,89.90
2018-09-06T07:07:16.979Z,89.60
2018-09-06T07:09:46.238Z,88.90
2018-09-06T07:12:15.184Z,88.30
2018-09-06T07:14:43.873Z,88.40
2018-09-06T07:17:13.344Z,88.40
2018-09-06T07:19:42.028Z,88.90
2018-09-06T07:22:10.825Z,89.00
2018-09-06T07:24:39.620Z,89.30
2018-09-06T07:27:09.397Z,88.90
2018-09-06T07:29:38.032Z,88.70
2018-09-06T07:32:06.956Z,87.90
2018-09-06T07:34:35.594Z,87.90
2018-09-06T07:37:04.351Z,87.00
2018-09-06T07:39:33.102Z,86.80
2018-09-06T07:42:01.754Z,86.80
2018-09-06T07:44:32.604Z,86.20
2018-09-06T07:47:01.282Z,87.60
2018-09-06T07:49:29.952Z,84.70
2018-09-06T07:52:00.155Z,84.00
2018-09-06T07:54:29.232Z,84.00
2018-09-06T07:56:59.067Z,83.90
2018-09-06T07:59:28.153Z,83.60
2018-09-06T08:01:58.537Z,83.80
2018-09-06T08:04:27.530Z,83.50
2018-09-06T08:07:00.843Z,82.70
2018-09-06T08:09:30.109Z,81.40
2018-09-06T08:11:59.030Z,82.80
2018-09-06T08:14:27.699Z,82.60
2018-09-06T08:16:56.799Z,82.10
2018-09-06T08:19:25.506Z,81.40
2018-09-06T08:21:54.366Z,80.70
2018-09-06T08:24:23.111Z,80.30
2018-09-06T08:26:51.735Z,80.30
2018-09-06T08:29:20.430Z,79.70
2018-09-06T08:31:49.093Z,80.50
2018-09-06T08:34:17.935Z,80.20
2018-09-06T08:36:53.195Z,79.30
2018-09-06T08:39:28.197Z,78.40
2018-09-06T08:41:58.241Z,77.70
2018-09-06T08:44:26.929Z,77.60
2018-09-06T08:46:55.609Z,77.80
2018-09-06T08:49:24.729Z,76.60
2018-09-06T08:51:53.433Z,75.60
2018-09-06T08:54:22.071Z,75.20
2018-09-06T08:56:50.879Z,74.90
2018-09-06T08:59:19.764Z,74.60
2018-09-06T09:01:49.230Z,74.40
2018-09-06T09:04:18.007Z,74.50
2018-09-06T09:06:46.727Z,74.20
2018-09-06T09:09:16.216Z,74.60
2018-09-06T09:11:44.940Z,74.50
2018-09-06T09:14:13.610Z,73.80
2018-09-06T09:16:44.294Z,73.60
2018-09-06T09:19:13.142Z,72.70
2018-09-06T09:21:41.960Z,73.60
2018-09-06T09:24:10.725Z,73.40
2018-09-06T09:26:39.460Z,72.40
2018-09-06T09:29:08.149Z,72.80
2018-09-06T09:31:36.828Z,73.50
2018-09-06T09:34:05.498Z,72.90
2018-09-06T09:36:34.199Z,71.90
2018-09-06T09:39:03.018Z,71.20
2018-09-06T09:41:31.770Z,70.80
2018-09-06T09:44:00.529Z,70.10
2018-09-06T09:48:57.269Z,70.10
2018-09-06T09:52:55.633Z,69.30
2018-09-06T09:55:24.473Z,69.60
2018-09-06T09:57:53.193Z,70.20
2018-09-06T10:00:28.203Z,68.70
2018-09-06T10:03:04.613Z,68.70
2018-09-06T10:05:38.833Z,69.00
2018-09-06T10:08:12.850Z,68.80
2018-09-06T10:10:41.763Z,67.40
2018-09-06T10:13:10.839Z,67.30
2018-09-06T10:15:40.232Z,66.00
2018-09-06T10:18:10.336Z,63.20
2018-09-06T10:20:43.343Z,59.90
2018-09-06T10:23:16.959Z,57.40
2018-09-06T10:25:48.951Z,53.90
2018-09-06T10:28:17.943Z,54.90
2018-09-06T10:30:46.778Z,55.00
2018-09-06T10:33:15.574Z,53.50
2018-09-06T10:35:44.294Z,52.10
2018-09-06T10:38:13.989Z,49.90
2018-09-06T10:40:42.880Z,46.90
2018-09-06T10:43:17.098Z,46.70
2018-09-06T10:45:46.587Z,48.60
2018-09-06T10:48:15.471Z,48.80
2018-09-06T10:50:44.236Z,47.90
2018-09-06T10:53:12.975Z,46.30
2018-09-06T10:55:43.455Z,44.80
2018-09-06T10:58:12.201Z,43.20
2018-09-06T11:00:41.256Z,42.10
2018-09-06T11:03:10.129Z,41.10
2018-09-06T11:05:39.367Z,40.50
2018-09-06T11:08:08.185Z,41.30
2018-09-06T11:10:36.950Z,40.20
2018-09-06T11:13:06.975Z,39.60
2018-09-06T11:15:35.877Z,40.70
2018-09-06T11:18:05.334Z,42.20
2018-09-06T11:20:37.683Z,41.20
2018-09-06T11:23:06.330Z,38.90
2018-09-06T11:25:35.085Z,39.40
2018-09-06T11:28:03.710Z,41.70
2018-09-06T11:30:32.442Z,40.00
2018-09-06T11:33:01.119Z,41.90
2018-09-06T11:35:29.882Z,41.10
2018-09-06T11:37:58.653Z,38.50
2018-09-06T11:40:27.530Z,36.70
2018-09-06T11:42:56.206Z,36.70
2018-09-06T11:45:24.905Z,39.90
2018-09-06T11:47:53.796Z,39.80
2018-09-06T11:50:22.559Z,37.20
2018-09-06T11:52:51.349Z,41.30
2018-09-06T11:55:20.125Z,43.70
2018-09-06T11:57:48.856Z,44.30
2018-09-06T12:00:17.607Z,40.80
2018-09-06T12:02:46.409Z,37.90
2018-09-06T12:05:15.149Z,36.20
2018-09-06T12:07:44.536Z,35.20
2018-09-06T12:10:13.373Z,34.10
2018-09-06T12:12:42.031Z,34.00
2018-09-06T12:15:10.723Z,35.40
2018-09-06T12:17:40.515Z,34.80
2018-09-06T12:20:09.618Z,34.30
2018-09-06T12:22:38.372Z,34.30
2018-09-06T12:25:07.723Z,31.90
2018-09-06T12:27:36.685Z,30.70
2018-09-06T12:30:05.513Z,32.50
2018-09-06T12:32:34.485Z,32.00
2018-09-06T12:35:03.636Z,31.60
2018-09-06T12:37:32.244Z,29.40
2018-09-06T12:40:05.525Z,30.20
2018-09-06T12:42:42.946Z,32.30
2018-09-06T12:45:13.660Z,31.20
2018-09-06T12:47:43.934Z,34.30
2018-09-06T12:50:13.001Z,36.00
2018-09-06T12:52:41.775Z,32.90
2018-09-06T12:55:10.522Z,31.60
2018-09-06T12:57:39.534Z,30.30
2018-09-06T13:00:08.480Z,29.40
2018-09-06T13:02:37.340Z,29.00
2018-09-06T13:05:12.035Z,29.00
2018-09-06T13:07:45.919Z,28.10
2018-09-06T13:10:18.926Z,27.80
2018-09-06T13:12:47.611Z,27.80
2018-09-06T13:15:16.348Z,28.30
2018-09-06T13:17:45.075Z,30.10
2018-09-06T13:20:13.862Z,34.10
2018-09-06T13:22:42.657Z,32.90
2018-09-06T13:25:15.349Z,31.50
2018-09-06T13:27:49.485Z,31.60
2018-09-06T13:30:18.315Z,30.00
2018-09-06T13:32:48.840Z,34.00
2018-09-06T13:35:21.929Z,32.60
2018-09-06T13:37:57.599Z,32.00
2018-09-06T13:40:27.948Z,32.30
2018-09-06T13:42:56.569Z,29.40
2018-09-06T13:45:26.258Z,28.60
2018-09-06T13:47:54.920Z,29.40
2018-09-06T13:50:25.009Z,30.00
2018-09-06T13:52:55.196Z,32.20
2018-09-06T13:55:23.936Z,30.70
2018-09-06T13:57:52.736Z,30.30
2018-09-06T14:00:21.482Z,31.20
2018-09-06T14:02:50.768Z,30.30
2018-09-06T14:05:19.519Z,28.60
2018-09-06T14:07:48.299Z,29.00
2018-09-06T14:10:17.034Z,29.20
2018-09-06T14:12:46.263Z,28.10
2018-09-06T14:15:14.993Z,28.00
2018-09-06T14:17:43.687Z,28.00
2018-09-06T14:20:12.386Z,29.40
2018-09-06T14:22:41.158Z,31.90
2018-09-06T14:25:09.965Z,34.10
2018-09-06T14:27:38.769Z,34.90
2018-09-06T14:30:07.743Z,35.00
2018-09-06T14:32:36.363Z,34.30
2018-09-06T14:36:34.241Z,36.20
2018-09-06T14:39:03.242Z,37.50
2018-09-06T14:41:32.149Z,38.30
2018-09-06T14:44:00.874Z,38.30
2018-09-06T14:46:29.442Z,37.60
2018-09-06T14:49:00.362Z,39.20
2018-09-06T14:51:29.124Z,39.40
2018-09-06T14:53:57.870Z,40.60
2018-09-06T14:56:26.583Z,41.20
2018-09-06T14:58:55.632Z,40.90
2018-09-06T15:01:24.666Z,42.20
2018-09-06T15:03:53.344Z,42.30
2018-09-06T15:06:22.092Z,42.20
2018-09-06T15:08:50.844Z,42.60
2018-09-06T15:11:19.909Z,42.70
2018-09-06T15:13:48.698Z,42.20
2018-09-06T15:16:18.242Z,41.10
2018-09-06T15:18:48.193Z,40.70
2018-09-06T15:21:16.955Z,40.30
2018-09-06T15:23:45.599Z,39.60
2018-09-06T15:26:14.310Z,40.60
2018-09-06T15:28:43.256Z,41.50
2018-09-06T15:31:12.022Z,41.80
2018-09-06T15:33:40.684Z,41.90
2018-09-06T15:36:09.418Z,40.90
2018-09-06T15:38:41.182Z,41.40
2018-09-06T15:41:10.087Z,41.80
2018-09-06T15:43:38.939Z,42.00
2018-09-06T15:46:07.619Z,42.50
2018-09-06T15:48:36.234Z,42.70
2018-09-06T15:51:05.057Z,43.50
2018-09-06T15:53:34.262Z,43.00
2018-09-06T15:56:03.081Z,43.40
2018-09-06T15:58:41.624Z,43.90
2018-09-06T16:01:13.949Z,44.50
2018-09-06T16:03:45.998Z,43.50
2018-09-06T16:06:14.758Z,43.10
2018-09-06T16:08:43.412Z,42.10
2018-09-06T16:11:12.122Z,43.50
2018-09-06T16:13:41.125Z,43.20
2018-09-06T16:16:09.975Z,42.90
2018-09-06T16:18:40.272Z,42.70
2018-09-06T16:21:09.373Z,43.20
2018-09-06T16:23:38.077Z,43.10
2018-09-06T16:26:06.878Z,43.40
2018-09-06T16:28:35.642Z,43.20
2018-09-06T16:31:04.400Z,43.40
2018-09-06T16:33:33.199Z,44.30
2018-09-06T16:36:02.304Z,44.10
2018-09-06T16:38:31.179Z,44.70
2018-09-06T16:41:00.045Z,45.10
2018-09-06T16:43:28.786Z,45.60
2018-09-06T16:45:57.828Z,45.60
2018-09-06T16:48:26.624Z,45.90
2018-09-06T16:50:55.218Z,46.10
2018-09-06T16:53:24.015Z,46.50
2018-09-06T16:55:52.670Z,46.60
2018-09-06T16:58:21.423Z,47.00
2018-09-06T17:00:50.164Z,47.50
2018-09-06T17:03:18.798Z,48.40
2018-09-06T17:05:47.686Z,48.80
2018-09-06T17:08:16.386Z,49.50
2018-09-06T17:10:45.039Z,49.50
2018-09-06T17:13:13.705Z,50.20
2018-09-06T17:15:42.411Z,50.80
2018-09-06T17:18:10.993Z,51.10
2018-09-06T17:24:12.012Z,52.00
2018-09-06T17:26:41.331Z,52.30
2018-09-06T17:29:13.574Z,52.60
2018-09-06T17:31:43.550Z,52.00
2018-09-06T17:34:12.291Z,53.00
2018-09-06T17:36:41.810Z,53.70
2018-09-06T17:39:12.497Z,54.30
2018-09-06T17:41:41.243Z,54.70
2018-09-06T17:44:09.929Z,54.80
2018-09-06T17:46:39.483Z,55.00
2018-09-06T17:49:08.370Z,55.10
2018-09-06T17:51:37.656Z,55.40
2018-09-06T17:54:06.564Z,55.60
2018-09-06T17:56:36.284Z,55.70
2018-09-06T17:59:05.086Z,56.30
2018-09-06T18:01:46.667Z,57.00
2018-09-06T18:04:21.055Z,57.20
2018-09-06T18:06:49.947Z,58.60
2018-09-06T18:09:18.766Z,60.20
2018-09-06T18:11:47.521Z,61.30
2018-09-06T18:14:17.024Z,61.20
2018-09-06T18:16:49.354Z,62.20
2018-09-06T18:19:19.132Z,62.70
2018-09-06T18:21:48.024Z,63.00
2018-09-06T18:24:17.059Z,63.60
2018-09-06T18:26:45.827Z,64.70
2018-09-06T18:29:15.577Z,64.00
2018-09-06T18:31:44.600Z,64.30
2018-09-06T18:34:13.320Z,64.50
2018-09-06T18:36:42.000Z,64.60
2018-09-06T18:39:13.883Z,64.60
2018-09-06T18:41:42.787Z,64.90
2018-09-06T18:44:11.549Z,65.30
2018-09-06T18:46:40.272Z,65.50
2018-09-06T18:49:09.480Z,66.00
2018-09-06T18:51:38.360Z,66.10
2018-09-06T18:54:07.314Z,66.00
2018-09-06T18:56:37.040Z,66.10
2018-09-06T18:59:05.948Z,66.50
2018-09-06T19:01:44.533Z,68.20
2018-09-06T19:04:22.061Z,67.20
2018-09-06T19:06:52.520Z,67.50
2018-09-06T19:09:21.450Z,67.60
2018-09-06T19:11:51.776Z,68.30
2018-09-06T19:14:20.507Z,68.30
2018-09-06T19:16:49.464Z,68.40
2018-09-06T19:19:20.175Z,68.30
2018-09-06T19:21:50.307Z,69.00
2018-09-06T19:24:19.750Z,69.30
2018-09-06T19:26:48.458Z,69.10
2018-09-06T19:29:17.284Z,69.10
2018-09-06T19:31:46.438Z,69.00
2018-09-06T19:34:15.287Z,68.80
2018-09-06T19:36:44.109Z,68.80
2018-09-06T19:39:13.674Z,68.80
2018-09-06T19:41:45.199Z,69.00
2018-09-06T19:44:19.479Z,69.30
2018-09-06T19:46:48.171Z,69.50
2018-09-06T19:49:16.946Z,69.60
2018-09-06T19:51:45.808Z,70.10
2018-09-06T19:54:14.539Z,70.30
2018-09-06T19:56:43.215Z,70.60
2018-09-06T19:59:11.911Z,70.50
2018-09-06T20:01:40.999Z,70.50
2018-09-06T20:04:09.834Z,71.00
2018-09-06T20:06:38.853Z,70.90
2018-09-06T20:09:08.058Z,71.70
2018-09-06T20:11:36.790Z,71.70
2018-09-06T20:14:05.723Z,71.90
2018-09-06T20:16:34.707Z,72.00
2018-09-06T20:19:03.515Z,72.30
2018-09-06T20:21:32.571Z,74.30
2018-09-06T20:24:01.728Z,72.80
2018-09-06T20:26:30.673Z,72.70
2018-09-06T20:28:59.600Z,72.90
2018-09-06T20:31:32.977Z,72.90
2018-09-06T20:34:01.938Z,73.00
2018-09-06T20:36:30.649Z,73.00
2018-09-06T20:38:59.504Z,73.40
2018-09-06T20:41:28.298Z,73.20
2018-09-06T20:43:57.012Z,73.40
2018-09-06T20:46:25.694Z,73.80
2018-09-06T20:48:56.343Z,73.90
2018-09-06T20:51:25.176Z,73.90
2018-09-06T20:53:54.113Z,74.10
2018-09-06T20:56:22.778Z,74.50
2018-09-06T20:58:53.031Z,74.50
2018-09-06T21:01:21.789Z,74.40
2018-09-06T21:03:50.662Z,74.70
2018-09-06T21:06:19.363Z,74.60
2018-09-06T21:08:48.185Z,74.70
2018-09-06T21:11:16.892Z,74.90
2018-09-06T21:13:45.587Z,75.00
2018-09-06T21:16:14.579Z,75.00
2018-09-06T21:18:43.301Z,75.10
2018-09-06T21:21:12.059Z,76.50
2018-09-06T21:23:40.719Z,75.60
2018-09-06T21:26:09.456Z,76.40
2018-09-06T21:28:38.591Z,76.60
2018-09-06T21:31:07.879Z,75.90
2018-09-06T21:33:36.866Z,75.70
2018-09-06T21:36:05.720Z,76.00
2018-09-06T21:38:34.519Z,76.00
2018-09-06T21:41:03.220Z,75.90
2018-09-06T21:43:39.526Z,75.60
2018-09-06T21:46:08.382Z,75.50
2018-09-06T21:48:37.354Z,75.50
2018-09-06T21:51:06.596Z,75.90
2018-09-06T21:53:35.252Z,75.50
2018-09-06T21:56:04.113Z,75.70
2018-09-06T21:58:33.031Z,75.50
2018-09-06T22:01:01.734Z,75.10
2018-09-06T22:03:35.646Z,75.30
2018-09-06T22:06:04.412Z,74.80
2018-09-06T22:08:33.231Z,74.90
2018-09-06T22:11:01.978Z,74.90
2018-09-06T22:13:38.806Z,74.80
2018-09-06T22:16:08.246Z,74.80
2018-09-06T22:18:40.453Z,74.80
2018-09-06T22:21:09.533Z,74.70
2018-09-06T22:23:38.251Z,74.60
2018-09-06T22:26:06.948Z,74.80
2018-09-06T22:28:36.023Z,75.50
2018-09-06T22:31:05.151Z,76.40
2018-09-06T22:33:34.298Z,77.10
2018-09-06T22:36:03.314Z,77.60
2018-09-06T22:38:32.546Z,77.60
2018-09-06T22:41:02.036Z,78.00
2018-09-06T22:43:30.790Z,77.90
2018-09-06T22:45:59.530Z,78.10
2018-09-06T22:48:28.713Z,78.00
2018-09-06T22:50:57.580Z,76.30
2018-09-06T22:53:28.768Z,77.30
2018-09-06T22:55:57.427Z,77.90
2018-09-06T22:58:28.104Z,78.20
2018-09-06T23:00:57.216Z,78.00
2018-09-06T23:03:31.063Z,77.20
2018-09-06T23:05:59.761Z,75.80
2018-09-06T23:08:28.658Z,76.80
2018-09-06T23:10:57.840Z,76.70
2018-09-06T23:13:26.815Z,76.60
2018-09-06T23:15:55.559Z,76.90
2018-09-06T23:18:24.517Z,76.50
2018-09-06T23:20:53.308Z,77.90
2018-09-06T23:23:22.084Z,78.10
2018-09-06T23:25:50.811Z,78.30
2018-09-06T23:28:21.506Z,78.10
2018-09-06T23:30:50.104Z,78.40
2018-09-06T23:33:18.834Z,78.90
2018-09-06T23:35:47.645Z,79.20
2018-09-06T23:38:18.356Z,79.10
2018-09-06T23:40:52.399Z,79.30
2018-09-06T23:43:21.982Z,78.80
2018-09-06T23:45:53.675Z,78.70
2018-09-06T23:48:24.610Z,79.20
2018-09-06T23:50:54.042Z,80.40
2018-09-06T23:53:23.067Z,81.60
2018-09-06T23:55:51.758Z,82.80
2018-09-06T23:58:20.837Z,83.70
